KSVC/SVC METAR and TAF weather

Enter ICAO airport designator
Station Type Date Time Source
KSVC METAR 2019/02/20 07:15 UTC NOAA

KSVC 200715Z AUTO 31005KT 10SM CLR M09/M11 A2997 RMK AO2 T10861111


Station Type Date Time Source
KSVC Decoded METAR 2019/02/20 07:15 UTC NOAA

Silver City / Grant, NM, United States (KSVC) 32-38N 108-09W
Feb 20, 2019 - 02:15 AM EST / 2019.02.20 0715 UTC
Wind: from the NW (310 degrees) at 6 MPH (5 KT):0
Visibility: 10 mile(s):0
Sky conditions: clear
Temperature: 16.5 F (-8.6 C)
Windchill: 8 F (-13 C):1
Dew Point: 12.0 F (-11.1 C)
Relative Humidity: 82%
Pressure (altimeter): 29.97 in. Hg (1014 hPa)
ob: KSVC 200715Z AUTO 31005KT 10SM CLR M09/M11 A2997 RMK AO2 T10861111
cycle: 7

Station Type Date Time Source
KSVC TAF UTC NOAA

Error!


Example: see airport list